sensor_id;sensor_type;location;lat;lon;timestamp;temperature;humidity
21811;DHT22;11067;48.788;9.208;2022-11-15T00:02:06;9.20;99.90
21811;DHT22;11067;48.788;9.208;2022-11-15T00:04:32;9.20;99.90
21811;DHT22;11067;48.788;9.208;2022-11-15T00:06:57;9.20;99.90
21811;DHT22;11067;48.788;9.208;2022-11-15T00:09:23;9.20;99.90
21811;DHT22;11067;48.788;9.208;2022-11-15T00:11:48;9.20;99.90
21811;DHT22;11067;48.788;9.208;2022-11-15T00:14:14;9.20;99.90
21811;DHT22;11067;48.788;9.208;2022-11-15T00:16:39;9.20;99.90
21811;DHT22;11067;48.788;9.208;2022-11-15T00:19:05;9.10;99.90
21811;DHT22;11067;48.788;9.208;2022-11-15T00:21:30;9.10;99.90
21811;DHT22;11067;48.788;9.208;2022-11-15T00:23:56;9.20;99.90
21811;DHT22;11067;48.788;9.208;2022-11-15T00:26:21;9.10;99.90
21811;DHT22;11067;48.788;9.208;2022-11-15T00:28:47;9.10;99.90
21811;DHT22;11067;48.788;9.208;2022-11-15T00:31:14;9.10;99.90
21811;DHT22;11067;48.788;9.208;2022-11-15T00:33:39;9.10;99.90
21811;DHT22;11067;48.788;9.208;2022-11-15T00:36:07;9.10;99.90
21811;DHT22;11067;48.788;9.208;2022-11-15T00:38:36;9.10;99.90
21811;DHT22;11067;48.788;9.208;2022-11-15T00:41:03;9.20;99.90
21811;DHT22;11067;48.788;9.208;2022-11-15T00:43:30;9.30;99.90
21811;DHT22;11067;48.788;9.208;2022-11-15T00:45:55;9.30;99.90
21811;DHT22;11067;48.788;9.208;2022-11-15T00:48:21;9.30;99.90
21811;DHT22;11067;48.788;9.208;2022-11-15T00:50:47;9.30;99.90
21811;DHT22;11067;48.788;9.208;2022-11-15T00:53:13;9.20;99.90
21811;DHT22;11067;48.788;9.208;2022-11-15T00:55:39;9.30;99.90
21811;DHT22;11067;48.788;9.208;2022-11-15T00:58:04;9.20;99.90
21811;DHT22;11067;48.788;9.208;2022-11-15T01:00:30;9.20;99.90
21811;DHT22;11067;48.788;9.208;2022-11-15T01:02:55;9.20;99.90
21811;DHT22;11067;48.788;9.208;2022-11-15T01:05:21;9.10;99.90
21811;DHT22;11067;48.788;9.208;2022-11-15T01:07:46;9.00;99.90
21811;DHT22;11067;48.788;9.208;2022-11-15T01:10:12;9.00;99.90
21811;DHT22;11067;48.788;9.208;2022-11-15T01:12:37;8.90;99.90
21811;DHT22;11067;48.788;9.208;2022-11-15T01:15:04;8.80;99.90
21811;DHT22;11067;48.788;9.208;2022-11-15T01:17:30;8.80;99.90
21811;DHT22;11067;48.788;9.208;2022-11-15T01:19:55;8.70;99.90
21811;DHT22;11067;48.788;9.208;2022-11-15T01:22:22;8.60;99.90
21811;DHT22;11067;48.788;9.208;2022-11-15T01:24:50;8.60;99.90
21811;DHT22;11067;48.788;9.208;2022-11-15T01:27:16;8.60;99.90
21811;DHT22;11067;48.788;9.208;2022-11-15T01:29:42;8.50;99.90
21811;DHT22;11067;48.788;9.208;2022-11-15T01:32:07;8.40;99.90
21811;DHT22;11067;48.788;9.208;2022-11-15T01:34:33;8.30;99.90
21811;DHT22;11067;48.788;9.208;2022-11-15T01:36:59;8.30;99.90
21811;DHT22;11067;48.788;9.208;2022-11-15T01:39:24;8.20;99.90
21811;DHT22;11067;48.788;9.208;2022-11-15T01:41:50;8.10;99.90
21811;DHT22;11067;48.788;9.208;2022-11-15T01:44:49;8.00;99.90
21811;DHT22;11067;48.788;9.208;2022-11-15T01:47:28;8.00;99.90
21811;DHT22;11067;48.788;9.208;2022-11-15T01:50:14;7.90;99.90
21811;DHT22;11067;48.788;9.208;2022-11-15T01:52:41;8.00;99.90
21811;DHT22;11067;48.788;9.208;2022-11-15T01:55:14;7.90;99.90
21811;DHT22;11067;48.788;9.208;2022-11-15T01:57:42;8.00;99.90
21811;DHT22;11067;48.788;9.208;2022-11-15T02:00:10;7.90;99.90
21811;DHT22;11067;48.788;9.208;2022-11-15T02:02:37;7.90;99.90
21811;DHT22;11067;48.788;9.208;2022-11-15T02:05:03;7.80;99.90
21811;DHT22;11067;48.788;9.208;2022-11-15T02:07:32;7.80;99.90
21811;DHT22;11067;48.788;9.208;2022-11-15T02:10:21;7.80;99.90
21811;DHT22;11067;48.788;9.208;2022-11-15T02:12:48;7.90;99.90
21811;DHT22;11067;48.788;9.208;2022-11-15T02:15:14;7.80;99.90
21811;DHT22;11067;48.788;9.208;2022-11-15T02:23:09;8.00;99.90
21811;DHT22;11067;48.788;9.208;2022-11-15T02:28:38;8.00;99.90
21811;DHT22;11067;48.788;9.208;2022-11-15T02:39:37;7.90;99.90
21811;DHT22;11067;48.788;9.208;2022-11-15T02:42:17;7.90;99.90
21811;DHT22;11067;48.788;9.208;2022-11-15T02:45:06;7.80;99.90
21811;DHT22;11067;48.788;9.208;2022-11-15T02:47:35;7.80;99.90
21811;DHT22;11067;48.788;9.208;2022-11-15T02:50:07;7.70;99.90
21811;DHT22;11067;48.788;9.208;2022-11-15T02:52:34;7.70;99.90
21811;DHT22;11067;48.788;9.208;2022-11-15T02:55:00;7.60;99.90
21811;DHT22;11067;48.788;9.208;2022-11-15T02:57:55;7.70;99.90
21811;DHT22;11067;48.788;9.208;2022-11-15T03:00:25;7.60;99.90
21811;DHT22;11067;48.788;9.208;2022-11-15T03:09:17;7.60;99.90
21811;DHT22;11067;48.788;9.208;2022-11-15T03:11:50;7.60;99.90
21811;DHT22;11067;48.788;9.208;2022-11-15T03:14:29;7.60;99.90
21811;DHT22;11067;48.788;9.208;2022-11-15T03:17:03;7.50;99.90
21811;DHT22;11067;48.788;9.208;2022-11-15T03:19:44;7.40;99.90
21811;DHT22;11067;48.788;9.208;2022-11-15T03:22:18;7.40;99.90
21811;DHT22;11067;48.788;9.208;2022-11-15T03:24:48;7.30;99.90
21811;DHT22;11067;48.788;9.208;2022-11-15T03:27:19;7.30;99.90
21811;DHT22;11067;48.788;9.208;2022-11-15T03:29:50;7.20;99.90
21811;DHT22;11067;48.788;9.208;2022-11-15T03:32:23;7.20;99.90
21811;DHT22;11067;48.788;9.208;2022-11-15T03:34:57;7.20;99.90
21811;DHT22;11067;48.788;9.208;2022-11-15T03:40:11;7.20;99.90
21811;DHT22;11067;48.788;9.208;2022-11-15T03:42:44;7.20;99.90
21811;DHT22;11067;48.788;9.208;2022-11-15T03:45:19;7.10;99.90
21811;DHT22;11067;48.788;9.208;2022-11-15T03:47:57;7.20;99.90
21811;DHT22;11067;48.788;9.208;2022-11-15T03:50:24;7.20;99.90
21811;DHT22;11067;48.788;9.208;2022-11-15T03:52:50;7.30;99.90
21811;DHT22;11067;48.788;9.208;2022-11-15T03:55:19;7.30;99.90
21811;DHT22;11067;48.788;9.208;2022-11-15T03:57:46;7.40;99.90
21811;DHT22;11067;48.788;9.208;2022-11-15T04:00:12;7.30;99.90
21811;DHT22;11067;48.788;9.208;2022-11-15T04:02:38;7.40;99.90
21811;DHT22;11067;48.788;9.208;2022-11-15T04:05:04;7.40;99.90
21811;DHT22;11067;48.788;9.208;2022-11-15T04:07:29;7.50;99.90
21811;DHT22;11067;48.788;9.208;2022-11-15T04:09:55;7.40;99.90
21811;DHT22;11067;48.788;9.208;2022-11-15T04:12:35;7.50;99.90
21811;DHT22;11067;48.788;9.208;2022-11-15T04:15:04;7.60;99.90
21811;DHT22;11067;48.788;9.208;2022-11-15T04:17:44;7.50;99.90
21811;DHT22;11067;48.788;9.208;2022-11-15T04:20:38;7.50;99.90
21811;DHT22;11067;48.788;9.208;2022-11-15T04:23:23;7.50;99.90
21811;DHT22;11067;48.788;9.208;2022-11-15T04:26:13;7.40;99.90
21811;DHT22;11067;48.788;9.208;2022-11-15T04:28:40;7.40;99.90
21811;DHT22;11067;48.788;9.208;2022-11-15T04:31:26;7.40;99.90
21811;DHT22;11067;48.788;9.208;2022-11-15T04:33:53;7.50;99.90
21811;DHT22;11067;48.788;9.208;2022-11-15T04:36:19;7.50;99.90
21811;DHT22;11067;48.788;9.208;2022-11-15T04:39:03;7.50;99.90
21811;DHT22;11067;48.788;9.208;2022-11-15T04:41:28;7.50;99.90
21811;DHT22;11067;48.788;9.208;2022-11-15T04:43:57;7.60;99.90
21811;DHT22;11067;48.788;9.208;2022-11-15T04:46:23;7.50;99.90
21811;DHT22;11067;48.788;9.208;2022-11-15T04:48:49;7.50;99.90
21811;DHT22;11067;48.788;9.208;2022-11-15T04:51:15;7.40;99.90
21811;DHT22;11067;48.788;9.208;2022-11-15T04:53:41;7.30;99.90
21811;DHT22;11067;48.788;9.208;2022-11-15T04:56:07;7.20;99.90
21811;DHT22;11067;48.788;9.208;2022-11-15T04:58:32;7.20;99.90
21811;DHT22;11067;48.788;9.208;2022-11-15T05:00:58;7.20;99.90
21811;DHT22;11067;48.788;9.208;2022-11-15T05:03:23;7.20;99.90
21811;DHT22;11067;48.788;9.208;2022-11-15T05:06:08;7.10;99.90
21811;DHT22;11067;48.788;9.208;2022-11-15T05:08:33;7.10;99.90
21811;DHT22;11067;48.788;9.208;2022-11-15T05:10:59;7.10;99.90
21811;DHT22;11067;48.788;9.208;2022-11-15T05:13:24;7.10;99.90
21811;DHT22;11067;48.788;9.208;2022-11-15T05:15:50;7.00;99.90
21811;DHT22;11067;48.788;9.208;2022-11-15T05:18:15;7.10;99.90
21811;DHT22;11067;48.788;9.208;2022-11-15T05:20:41;7.10;99.90
21811;DHT22;11067;48.788;9.208;2022-11-15T05:23:07;7.20;99.90
21811;DHT22;11067;48.788;9.208;2022-11-15T05:25:32;7.10;99.90
21811;DHT22;11067;48.788;9.208;2022-11-15T05:27:58;7.10;99.90
21811;DHT22;11067;48.788;9.208;2022-11-15T05:30:23;7.00;99.90
21811;DHT22;11067;48.788;9.208;2022-11-15T05:32:50;7.10;99.90
21811;DHT22;11067;48.788;9.208;2022-11-15T05:35:25;7.00;99.90
21811;DHT22;11067;48.788;9.208;2022-11-15T05:37:52;7.00;99.90
21811;DHT22;11067;48.788;9.208;2022-11-15T05:40:18;7.00;99.90
21811;DHT22;11067;48.788;9.208;2022-11-15T05:42:44;7.00;99.90
21811;DHT22;11067;48.788;9.208;2022-11-15T05:45:11;7.00;99.90
21811;DHT22;11067;48.788;9.208;2022-11-15T05:47:38;7.00;99.90
21811;DHT22;11067;48.788;9.208;2022-11-15T05:50:05;7.00;99.90
21811;DHT22;11067;48.788;9.208;2022-11-15T05:52:34;7.00;99.90
21811;DHT22;11067;48.788;9.208;2022-11-15T05:55:02;7.00;99.90
21811;DHT22;11067;48.788;9.208;2022-11-15T05:57:28;7.00;99.90
21811;DHT22;11067;48.788;9.208;2022-11-15T05:59:54;7.10;99.90
21811;DHT22;11067;48.788;9.208;2022-11-15T06:02:20;7.00;99.90
21811;DHT22;11067;48.788;9.208;2022-11-15T06:04:45;7.00;99.90
21811;DHT22;11067;48.788;9.208;2022-11-15T06:07:11;7.10;99.90
21811;DHT22;11067;48.788;9.208;2022-11-15T06:09:36;7.10;99.90
21811;DHT22;11067;48.788;9.208;2022-11-15T06:12:02;7.20;99.90
21811;DHT22;11067;48.788;9.208;2022-11-15T06:14:28;7.20;99.90
21811;DHT22;11067;48.788;9.208;2022-11-15T06:16:53;7.30;99.90
21811;DHT22;11067;48.788;9.208;2022-11-15T06:19:19;7.30;99.90
21811;DHT22;11067;48.788;9.208;2022-11-15T06:21:44;7.30;99.90
21811;DHT22;11067;48.788;9.208;2022-11-15T06:24:10;7.30;99.90
21811;DHT22;11067;48.788;9.208;2022-11-15T06:26:36;7.40;99.90
21811;DHT22;11067;48.788;9.208;2022-11-15T06:29:03;7.40;99.90
21811;DHT22;11067;48.788;9.208;2022-11-15T06:31:29;7.40;99.90
21811;DHT22;11067;48.788;9.208;2022-11-15T06:33:55;7.30;99.90
21811;DHT22;11067;48.788;9.208;2022-11-15T06:36:20;7.30;99.90
21811;DHT22;11067;48.788;9.208;2022-11-15T06:38:46;7.40;99.90
21811;DHT22;11067;48.788;9.208;2022-11-15T06:41:13;7.40;99.90
21811;DHT22;11067;48.788;9.208;2022-11-15T06:43:39;7.40;99.90
21811;DHT22;11067;48.788;9.208;2022-11-15T06:46:06;7.40;99.90
21811;DHT22;11067;48.788;9.208;2022-11-15T06:48:33;7.40;99.90
21811;DHT22;11067;48.788;9.208;2022-11-15T06:51:00;7.40;99.90
21811;DHT22;11067;48.788;9.208;2022-11-15T06:53:26;7.40;99.90
21811;DHT22;11067;48.788;9.208;2022-11-15T06:55:52;7.40;99.90
21811;DHT22;11067;48.788;9.208;2022-11-15T06:58:20;7.40;99.90
21811;DHT22;11067;48.788;9.208;2022-11-15T07:00:45;7.40;99.90
21811;DHT22;11067;48.788;9.208;2022-11-15T07:03:11;7.50;99.90
21811;DHT22;11067;48.788;9.208;2022-11-15T07:05:36;7.50;99.90
21811;DHT22;11067;48.788;9.208;2022-11-15T07:08:02;7.60;99.90
21811;DHT22;11067;48.788;9.208;2022-11-15T07:10:28;7.60;99.90
21811;DHT22;11067;48.788;9.208;2022-11-15T07:12:55;7.60;99.90
21811;DHT22;11067;48.788;9.208;2022-11-15T07:15:24;7.70;99.90
21811;DHT22;11067;48.788;9.208;2022-11-15T07:17:50;7.70;99.90
21811;DHT22;11067;48.788;9.208;2022-11-15T07:20:16;7.80;99.90
21811;DHT22;11067;48.788;9.208;2022-11-15T07:22:43;7.80;99.90
21811;DHT22;11067;48.788;9.208;2022-11-15T07:25:10;7.80;99.90
21811;DHT22;11067;48.788;9.208;2022-11-15T07:27:39;7.90;99.90
21811;DHT22;11067;48.788;9.208;2022-11-15T07:30:05;8.00;99.90
21811;DHT22;11067;48.788;9.208;2022-11-15T07:32:31;8.10;99.90
21811;DHT22;11067;48.788;9.208;2022-11-15T07:34:56;8.20;99.90
21811;DHT22;11067;48.788;9.208;2022-11-15T07:37:22;8.30;99.90
21811;DHT22;11067;48.788;9.208;2022-11-15T07:39:48;8.40;99.90
21811;DHT22;11067;48.788;9.208;2022-11-15T07:42:13;8.40;99.90
21811;DHT22;11067;48.788;9.208;2022-11-15T07:44:57;8.40;99.90
21811;DHT22;11067;48.788;9.208;2022-11-15T07:47:23;8.50;99.90
21811;DHT22;11067;48.788;9.208;2022-11-15T07:49:48;8.70;99.90
21811;DHT22;11067;48.788;9.208;2022-11-15T07:52:14;8.80;99.90
21811;DHT22;11067;48.788;9.208;2022-11-15T07:54:39;9.00;99.90
21811;DHT22;11067;48.788;9.208;2022-11-15T07:57:05;9.10;99.90
21811;DHT22;11067;48.788;9.208;2022-11-15T07:59:32;9.20;99.90
21811;DHT22;11067;48.788;9.208;2022-11-15T08:01:58;9.00;99.90
21811;DHT22;11067;48.788;9.208;2022-11-15T08:04:24;9.10;99.90
21811;DHT22;11067;48.788;9.208;2022-11-15T08:06:49;9.20;99.90
21811;DHT22;11067;48.788;9.208;2022-11-15T08:09:15;9.30;99.90
21811;DHT22;11067;48.788;9.208;2022-11-15T08:11:40;9.30;99.90
21811;DHT22;11067;48.788;9.208;2022-11-15T08:14:06;9.40;99.90
21811;DHT22;11067;48.788;9.208;2022-11-15T08:16:31;9.40;99.90
21811;DHT22;11067;48.788;9.208;2022-11-15T08:18:57;9.50;99.90
21811;DHT22;11067;48.788;9.208;2022-11-15T08:21:23;9.60;99.90
21811;DHT22;11067;48.788;9.208;2022-11-15T08:23:49;9.80;99.90
21811;DHT22;11067;48.788;9.208;2022-11-15T08:26:14;9.80;99.90
21811;DHT22;11067;48.788;9.208;2022-11-15T08:28:40;9.80;99.90
21811;DHT22;11067;48.788;9.208;2022-11-15T08:31:05;9.90;99.90
21811;DHT22;11067;48.788;9.208;2022-11-15T08:33:33;10.00;99.90
21811;DHT22;11067;48.788;9.208;2022-11-15T08:36:00;10.30;99.90
21811;DHT22;11067;48.788;9.208;2022-11-15T08:38:26;10.40;99.90
21811;DHT22;11067;48.788;9.208;2022-11-15T08:41:02;10.40;99.90
21811;DHT22;11067;48.788;9.208;2022-11-15T08:43:29;10.60;99.90
21811;DHT22;11067;48.788;9.208;2022-11-15T08:45:57;10.80;99.90
21811;DHT22;11067;48.788;9.208;2022-11-15T08:48:23;10.60;99.90
21811;DHT22;11067;48.788;9.208;2022-11-15T08:50:48;10.60;99.90
21811;DHT22;11067;48.788;9.208;2022-11-15T08:53:14;10.50;99.90
21811;DHT22;11067;48.788;9.208;2022-11-15T08:55:40;10.50;99.90
21811;DHT22;11067;48.788;9.208;2022-11-15T08:58:06;10.60;99.90
21811;DHT22;11067;48.788;9.208;2022-11-15T09:00:32;10.60;99.90
21811;DHT22;11067;48.788;9.208;2022-11-15T09:02:58;10.70;99.90
21811;DHT22;11067;48.788;9.208;2022-11-15T09:05:24;10.70;99.90
21811;DHT22;11067;48.788;9.208;2022-11-15T09:07:53;10.80;99.90
21811;DHT22;11067;48.788;9.208;2022-11-15T09:10:20;11.00;99.90
21811;DHT22;11067;48.788;9.208;2022-11-15T09:12:45;11.40;99.90
21811;DHT22;11067;48.788;9.208;2022-11-15T09:15:14;11.50;99.90
21811;DHT22;11067;48.788;9.208;2022-11-15T09:17:39;11.60;99.90
21811;DHT22;11067;48.788;9.208;2022-11-15T09:20:06;11.70;99.90
21811;DHT22;11067;48.788;9.208;2022-11-15T09:22:31;11.70;99.90
21811;DHT22;11067;48.788;9.208;2022-11-15T09:24:57;12.00;99.90
21811;DHT22;11067;48.788;9.208;2022-11-15T09:27:22;11.90;99.90
21811;DHT22;11067;48.788;9.208;2022-11-15T09:29:48;12.10;99.90
21811;DHT22;11067;48.788;9.208;2022-11-15T09:32:13;12.30;99.90
21811;DHT22;11067;48.788;9.208;2022-11-15T09:34:39;12.60;99.90
21811;DHT22;11067;48.788;9.208;2022-11-15T09:37:04;12.70;99.90
21811;DHT22;11067;48.788;9.208;2022-11-15T09:39:30;12.80;99.90
21811;DHT22;11067;48.788;9.208;2022-11-15T09:42:12;12.90;99.90
21811;DHT22;11067;48.788;9.208;2022-11-15T09:50:09;12.90;99.90
21811;DHT22;11067;48.788;9.208;2022-11-15T09:52:36;13.10;99.90
21811;DHT22;11067;48.788;9.208;2022-11-15T09:55:05;13.10;99.90
21811;DHT22;11067;48.788;9.208;2022-11-15T10:00:22;13.40;99.90
21811;DHT22;11067;48.788;9.208;2022-11-15T10:05:22;13.60;99.90
21811;DHT22;11067;48.788;9.208;2022-11-15T10:08:11;13.80;99.90
21811;DHT22;11067;48.788;9.208;2022-11-15T10:10:47;13.70;99.90
21811;DHT22;11067;48.788;9.208;2022-11-15T10:15:47;13.40;99.90
21811;DHT22;11067;48.788;9.208;2022-11-15T10:18:14;13.20;99.90
21811;DHT22;11067;48.788;9.208;2022-11-15T10:21:08;13.10;99.90
21811;DHT22;11067;48.788;9.208;2022-11-15T10:23:38;13.10;99.90
21811;DHT22;11067;48.788;9.208;2022-11-15T10:26:07;13.00;99.90
21811;DHT22;11067;48.788;9.208;2022-11-15T10:28:36;12.90;99.90
21811;DHT22;11067;48.788;9.208;2022-11-15T10:31:01;12.90;99.90
21811;DHT22;11067;48.788;9.208;2022-11-15T10:33:35;12.80;99.90
21811;DHT22;11067;48.788;9.208;2022-11-15T10:41:13;13.00;99.90
21811;DHT22;11067;48.788;9.208;2022-11-15T10:43:39;13.00;99.90
21811;DHT22;11067;48.788;9.208;2022-11-15T10:46:25;13.20;99.90
21811;DHT22;11067;48.788;9.208;2022-11-15T10:48:50;13.30;99.90
21811;DHT22;11067;48.788;9.208;2022-11-15T10:51:22;13.10;99.90
21811;DHT22;11067;48.788;9.208;2022-11-15T10:53:51;13.00;99.90
21811;DHT22;11067;48.788;9.208;2022-11-15T10:56:21;13.10;99.90
21811;DHT22;11067;48.788;9.208;2022-11-15T10:58:57;13.20;99.90
21811;DHT22;11067;48.788;9.208;2022-11-15T11:01:25;13.20;99.90
21811;DHT22;11067;48.788;9.208;2022-11-15T11:04:07;13.20;99.90
21811;DHT22;11067;48.788;9.208;2022-11-15T11:06:57;13.20;99.90
21811;DHT22;11067;48.788;9.208;2022-11-15T11:09:37;13.30;99.90
21811;DHT22;11067;48.788;9.208;2022-11-15T11:12:05;13.20;99.90
21811;DHT22;11067;48.788;9.208;2022-11-15T11:14:35;13.20;99.90
21811;DHT22;11067;48.788;9.208;2022-11-15T11:17:23;13.20;99.90
21811;DHT22;11067;48.788;9.208;2022-11-15T11:22:51;13.20;99.90
21811;DHT22;11067;48.788;9.208;2022-11-15T11:28:41;13.50;99.90
21811;DHT22;11067;48.788;9.208;2022-11-15T11:31:20;13.50;99.90
21811;DHT22;11067;48.788;9.208;2022-11-15T11:39:43;13.50;99.90
21811;DHT22;11067;48.788;9.208;2022-11-15T11:42:26;13.50;99.90
21811;DHT22;11067;48.788;9.208;2022-11-15T11:47:48;13.80;99.90
21811;DHT22;11067;48.788;9.208;2022-11-15T11:50:25;13.80;99.90
21811;DHT22;11067;48.788;9.208;2022-11-15T11:53:02;13.70;99.90
21811;DHT22;11067;48.788;9.208;2022-11-15T11:55:37;13.80;99.90
21811;DHT22;11067;48.788;9.208;2022-11-15T11:58:29;13.90;99.90
21811;DHT22;11067;48.788;9.208;2022-11-15T12:03:47;13.80;99.90
21811;DHT22;11067;48.788;9.208;2022-11-15T12:06:42;13.90;99.90
21811;DHT22;11067;48.788;9.208;2022-11-15T12:12:27;14.10;99.90
21811;DHT22;11067;48.788;9.208;2022-11-15T12:15:00;14.10;99.90
21811;DHT22;11067;48.788;9.208;2022-11-15T12:17:29;14.30;99.90
21811;DHT22;11067;48.788;9.208;2022-11-15T12:20:19;14.30;99.90
21811;DHT22;11067;48.788;9.208;2022-11-15T12:23:13;14.30;99.90
21811;DHT22;11067;48.788;9.208;2022-11-15T12:25:49;14.20;99.90
21811;DHT22;11067;48.788;9.208;2022-11-15T12:31:12;14.20;99.90
21811;DHT22;11067;48.788;9.208;2022-11-15T12:33:43;14.10;99.90
21811;DHT22;11067;48.788;9.208;2022-11-15T12:36:10;14.30;99.90
21811;DHT22;11067;48.788;9.208;2022-11-15T12:41:33;14.20;99.90
21811;DHT22;11067;48.788;9.208;2022-11-15T12:43:59;14.00;99.90
21811;DHT22;11067;48.788;9.208;2022-11-15T12:52:02;13.90;99.90
21811;DHT22;11067;48.788;9.208;2022-11-15T12:59:51;14.10;99.90
21811;DHT22;11067;48.788;9.208;2022-11-15T13:04:47;14.10;99.90
21811;DHT22;11067;48.788;9.208;2022-11-15T13:10:01;14.10;99.90
21811;DHT22;11067;48.788;9.208;2022-11-15T13:15:00;14.10;99.90
21811;DHT22;11067;48.788;9.208;2022-11-15T13:17:29;14.10;99.90
21811;DHT22;11067;48.788;9.208;2022-11-15T13:31:21;14.00;99.90
21811;DHT22;11067;48.788;9.208;2022-11-15T13:33:48;13.90;99.90
21811;DHT22;11067;48.788;9.208;2022-11-15T13:36:18;13.90;99.90
21811;DHT22;11067;48.788;9.208;2022-11-15T13:38:45;13.80;99.90
21811;DHT22;11067;48.788;9.208;2022-11-15T13:41:24;13.80;99.90
21811;DHT22;11067;48.788;9.208;2022-11-15T13:43:51;13.80;99.90
21811;DHT22;11067;48.788;9.208;2022-11-15T13:49:08;13.80;99.90
21811;DHT22;11067;48.788;9.208;2022-11-15T13:51:48;13.70;99.90
21811;DHT22;11067;48.788;9.208;2022-11-15T13:54:37;13.70;99.90
21811;DHT22;11067;48.788;9.208;2022-11-15T13:59:36;13.80;99.90
21811;DHT22;11067;48.788;9.208;2022-11-15T14:02:11;13.90;99.90
21811;DHT22;11067;48.788;9.208;2022-11-15T14:04:45;13.90;99.90
21811;DHT22;11067;48.788;9.208;2022-11-15T14:07:17;13.90;99.90
21811;DHT22;11067;48.788;9.208;2022-11-15T14:09:44;13.80;99.90
21811;DHT22;11067;48.788;9.208;2022-11-15T14:12:33;13.70;99.90
21811;DHT22;11067;48.788;9.208;2022-11-15T14:15:01;13.70;99.90
21811;DHT22;11067;48.788;9.208;2022-11-15T14:19:57;13.70;99.90
21811;DHT22;11067;48.788;9.208;2022-11-15T14:22:27;13.60;99.90
21811;DHT22;11067;48.788;9.208;2022-11-15T14:25:34;13.60;99.90
21811;DHT22;11067;48.788;9.208;2022-11-15T14:30:42;13.40;99.90
21811;DHT22;11067;48.788;9.208;2022-11-15T14:35:55;13.30;99.90
21811;DHT22;11067;48.788;9.208;2022-11-15T14:38:23;13.30;99.90
21811;DHT22;11067;48.788;9.208;2022-11-15T14:40:48;13.30;99.90
21811;DHT22;11067;48.788;9.208;2022-11-15T14:43:14;13.30;99.90
21811;DHT22;11067;48.788;9.208;2022-11-15T14:45:40;13.30;99.90
21811;DHT22;11067;48.788;9.208;2022-11-15T14:48:06;13.30;99.90
21811;DHT22;11067;48.788;9.208;2022-11-15T14:50:32;13.20;99.90
21811;DHT22;11067;48.788;9.208;2022-11-15T14:52:58;13.20;99.90
21811;DHT22;11067;48.788;9.208;2022-11-15T14:57:51;13.20;99.90
21811;DHT22;11067;48.788;9.208;2022-11-15T15:00:18;13.10;99.90
21811;DHT22;11067;48.788;9.208;2022-11-15T15:02:46;13.10;99.90
21811;DHT22;11067;48.788;9.208;2022-11-15T15:05:19;13.20;99.90
21811;DHT22;11067;48.788;9.208;2022-11-15T15:07:45;13.10;99.90
21811;DHT22;11067;48.788;9.208;2022-11-15T15:10:12;13.10;99.90
21811;DHT22;11067;48.788;9.208;2022-11-15T15:12:38;13.10;99.90
21811;DHT22;11067;48.788;9.208;2022-11-15T15:15:04;13.00;99.90
21811;DHT22;11067;48.788;9.208;2022-11-15T15:17:30;13.00;99.90
21811;DHT22;11067;48.788;9.208;2022-11-15T15:19:56;12.90;99.90
21811;DHT22;11067;48.788;9.208;2022-11-15T15:22:21;12.90;99.90
21811;DHT22;11067;48.788;9.208;2022-11-15T15:24:50;12.90;99.90
21811;DHT22;11067;48.788;9.208;2022-11-15T15:27:16;12.90;99.90
21811;DHT22;11067;48.788;9.208;2022-11-15T15:29:41;12.90;99.90
21811;DHT22;11067;48.788;9.208;2022-11-15T15:32:10;13.00;99.90
21811;DHT22;11067;48.788;9.208;2022-11-15T15:34:36;12.90;99.90
21811;DHT22;11067;48.788;9.208;2022-11-15T15:39:34;12.80;99.90
21811;DHT22;11067;48.788;9.208;2022-11-15T15:42:00;12.90;99.90
21811;DHT22;11067;48.788;9.208;2022-11-15T15:44:25;12.90;99.90
21811;DHT22;11067;48.788;9.208;2022-11-15T15:46:51;12.90;99.90
21811;DHT22;11067;48.788;9.208;2022-11-15T15:49:17;12.80;99.90
21811;DHT22;11067;48.788;9.208;2022-11-15T15:51:43;12.90;99.90
21811;DHT22;11067;48.788;9.208;2022-11-15T15:54:09;12.90;99.90
21811;DHT22;11067;48.788;9.208;2022-11-15T15:56:34;13.00;99.90
21811;DHT22;11067;48.788;9.208;2022-11-15T15:59:00;12.90;99.90
21811;DHT22;11067;48.788;9.208;2022-11-15T16:01:25;12.90;99.90
21811;DHT22;11067;48.788;9.208;2022-11-15T16:03:51;12.90;99.90
21811;DHT22;11067;48.788;9.208;2022-11-15T16:06:35;12.90;99.90
21811;DHT22;11067;48.788;9.208;2022-11-15T16:09:03;12.80;99.90
21811;DHT22;11067;48.788;9.208;2022-11-15T16:11:28;12.90;99.90
21811;DHT22;11067;48.788;9.208;2022-11-15T16:13:54;12.90;99.90
21811;DHT22;11067;48.788;9.208;2022-11-15T16:16:20;12.90;99.90
21811;DHT22;11067;48.788;9.208;2022-11-15T16:18:46;12.90;99.90
21811;DHT22;11067;48.788;9.208;2022-11-15T16:21:12;13.00;99.90
21811;DHT22;11067;48.788;9.208;2022-11-15T16:23:37;13.00;99.90
21811;DHT22;11067;48.788;9.208;2022-11-15T16:26:26;13.20;99.90
21811;DHT22;11067;48.788;9.208;2022-11-15T16:28:52;13.30;99.90
21811;DHT22;11067;48.788;9.208;2022-11-15T16:31:18;13.30;99.90
21811;DHT22;11067;48.788;9.208;2022-11-15T16:33:46;13.40;99.90
21811;DHT22;11067;48.788;9.208;2022-11-15T16:36:23;13.40;99.90
21811;DHT22;11067;48.788;9.208;2022-11-15T16:38:50;13.40;99.90
21811;DHT22;11067;48.788;9.208;2022-11-15T16:41:16;13.50;99.90
21811;DHT22;11067;48.788;9.208;2022-11-15T16:43:44;13.50;99.90
21811;DHT22;11067;48.788;9.208;2022-11-15T16:46:19;13.60;99.90
21811;DHT22;11067;48.788;9.208;2022-11-15T16:48:46;13.40;99.90
21811;DHT22;11067;48.788;9.208;2022-11-15T16:51:12;13.30;99.90
21811;DHT22;11067;48.788;9.208;2022-11-15T16:53:38;13.20;99.90
21811;DHT22;11067;48.788;9.208;2022-11-15T16:56:11;13.20;99.90
21811;DHT22;11067;48.788;9.208;2022-11-15T16:58:37;13.20;99.90
21811;DHT22;11067;48.788;9.208;2022-11-15T17:01:03;13.10;99.90
21811;DHT22;11067;48.788;9.208;2022-11-15T17:03:29;13.00;99.90
21811;DHT22;11067;48.788;9.208;2022-11-15T17:05:57;13.00;99.90
21811;DHT22;11067;48.788;9.208;2022-11-15T17:08:24;13.00;99.90
21811;DHT22;11067;48.788;9.208;2022-11-15T17:10:49;13.00;99.90
21811;DHT22;11067;48.788;9.208;2022-11-15T17:13:15;13.00;99.90
21811;DHT22;11067;48.788;9.208;2022-11-15T17:15:41;13.10;99.90
21811;DHT22;11067;48.788;9.208;2022-11-15T17:18:10;13.20;99.90
21811;DHT22;11067;48.788;9.208;2022-11-15T17:20:36;13.30;99.90
21811;DHT22;11067;48.788;9.208;2022-11-15T17:23:01;13.30;99.90
21811;DHT22;11067;48.788;9.208;2022-11-15T17:25:27;13.30;99.90
21811;DHT22;11067;48.788;9.208;2022-11-15T17:27:52;13.30;99.90
21811;DHT22;11067;48.788;9.208;2022-11-15T17:30:18;13.30;99.90
21811;DHT22;11067;48.788;9.208;2022-11-15T17:32:44;13.30;99.90
21811;DHT22;11067;48.788;9.208;2022-11-15T17:35:12;13.20;99.90
21811;DHT22;11067;48.788;9.208;2022-11-15T17:37:37;13.30;99.90
21811;DHT22;11067;48.788;9.208;2022-11-15T17:40:03;13.20;99.90
21811;DHT22;11067;48.788;9.208;2022-11-15T17:42:29;13.20;99.90
21811;DHT22;11067;48.788;9.208;2022-11-15T17:44:55;13.30;99.90
21811;DHT22;11067;48.788;9.208;2022-11-15T17:47:20;13.30;99.90
21811;DHT22;11067;48.788;9.208;2022-11-15T17:49:46;13.20;99.90